Hope, Michigan
Current Conditions -  °F | °C
As of 11:14 AM on Monday 24 Nov 2014 (Local Time) from KIKW Reporting Station
Overcast Overcast  
Wind Chill: 11°   Ceiling: 900
Heat Index: 11°   Visibility: 10mi
Dew Point: 10°   Wind: 12mph
Humidity: 92%   Direction: 220°SW
Pressure: 29.04"   Gusts: 18mph
Location:  43.76°N, 84.34°W
Report Text: KIKW 241614Z AUTO 22010G16KT 10SM OVC009 12/10 A2904 RMK AO2 T01150102
Loading
Personal Weather Stations






























Interactive Weather Map New forecast layout! Learn more

10-Day Weather Forecast

Advertisements
Track Severe Weather on mobile